Time,TemperatureF,DewpointF,PressureIn,WindDirection,WindDirectionDegrees,WindSpeedMPH,WindSpeedGustMPH,Humidity,HourlyPrecipIn,Conditions,Clouds,dailyrainin,SoftwareType,DateUTC
2013-02-10 00:01:00,22.0,19.0,-100.00,SW,227,2.0,8.0,86,0.00,,,-99.99,,2013-02-10 05:01:00,
2013-02-10 00:11:00,22.0,19.0,-100.00,West,268,2.0,8.0,86,0.00,,,-99.99,,2013-02-10 05:11:00,
2013-02-10 00:23:00,22.0,21.0,-100.00,West,261,2.0,8.0,88,0.00,,,-99.99,,2013-02-10 05:23:00,
2013-02-10 00:32:00,22.0,19.0,-100.00,West,266,2.0,8.0,86,0.00,,,-99.99,,2013-02-10 05:32:00,
2013-02-10 00:42:00,22.0,19.0,-100.00,WSW,247,2.0,8.0,88,0.00,,,-99.99,,2013-02-10 05:42:00,
2013-02-10 00:52:00,21.0,19.0,-100.00,NW,304,2.0,8.0,88,0.00,,,-99.99,,2013-02-10 05:52:00,
2013-02-10 01:02:00,21.0,19.0,-100.00,SW,223,2.0,8.0,89,0.00,,,-99.99,,2013-02-10 06:02:00,
2013-02-10 01:11:00,20.0,18.0,-100.00,WSW,244,2.0,8.0,88,0.00,,,-99.99,,2013-02-10 06:11:00,
2013-02-10 01:21:00,22.0,21.0,-100.00,WSW,258,1.0,8.0,89,0.00,,,-99.99,,2013-02-10 06:21:00,
2013-02-10 01:32:00,23.0,21.0,-100.00,West,269,1.0,8.0,90,0.00,,,-99.99,,2013-02-10 06:32:00,
2013-02-10 01:42:00,22.0,21.0,-100.00,SSW,213,2.0,8.0,90,0.00,,,-99.99,,2013-02-10 06:42:00,
2013-02-10 01:51:00,24.0,23.0,-100.00,WSW,252,2.0,8.0,91,0.00,,,-99.99,,2013-02-10 06:51:00,
2013-02-10 02:01:00,24.0,23.0,-100.00,SW,235,2.0,8.0,90,0.00,,,-99.99,,2013-02-10 07:01:00,
2013-02-10 02:11:00,21.0,19.0,-100.00,West,271,3.0,8.0,88,0.00,,,-99.99,,2013-02-10 07:11:00,
2013-02-10 02:21:00,24.0,21.0,-100.00,WSW,256,2.0,8.0,90,0.00,,,-99.99,,2013-02-10 07:21:00,
2013-02-10 02:32:00,20.0,18.0,-100.00,West,268,2.0,8.0,88,0.00,,,-99.99,,2013-02-10 07:32:00,
2013-02-10 02:42:00,23.0,21.0,-100.00,WSW,242,2.0,8.0,91,0.00,,,-99.99,,2013-02-10 07:42:00,
2013-02-10 02:51:00,22.0,21.0,-100.00,WSW,255,3.0,8.0,91,0.00,,,-99.99,,2013-02-10 07:51:00,
2013-02-10 03:01:00,22.0,21.0,-100.00,West,262,2.0,8.0,90,0.00,,,-99.99,,2013-02-10 08:01:00,
2013-02-10 03:11:00,23.0,21.0,-100.00,WSW,244,2.0,8.0,90,0.00,,,-99.99,,2013-02-10 08:11:00,
2013-02-10 03:21:00,19.0,18.0,-100.00,West,268,2.0,8.0,88,0.00,,,-99.99,,2013-02-10 08:21:00,
2013-02-10 03:32:00,23.0,21.0,-100.00,WSW,247,1.0,8.0,90,0.00,,,-99.99,,2013-02-10 08:32:00,
2013-02-10 03:43:00,22.0,21.0,-100.00,West,266,2.0,8.0,91,0.00,,,-99.99,,2013-02-10 08:43:00,
2013-02-10 03:52:00,24.0,21.0,-100.00,SW,232,2.0,8.0,90,0.00,,,-99.99,,2013-02-10 08:52:00,
2013-02-10 04:02:00,23.0,21.0,-100.00,SW,231,2.0,8.0,89,0.00,,,-99.99,,2013-02-10 09:02:00,
2013-02-10 04:11:00,23.0,21.0,-100.00,SW,230,2.0,8.0,86,0.00,,,-99.99,,2013-02-10 09:11:00,
2013-02-10 04:21:00,22.0,19.0,-100.00,West,268,2.0,8.0,86,0.00,,,-99.99,,2013-02-10 09:21:00,
2013-02-10 04:32:00,21.0,18.0,-100.00,WNW,288,2.0,8.0,85,0.00,,,-99.99,,2013-02-10 09:32:00,
2013-02-10 04:42:00,21.0,18.0,-100.00,West,276,2.0,8.0,85,0.00,,,-99.99,,2013-02-10 09:42:00,
2013-02-10 04:51:00,21.0,19.0,-100.00,WSW,244,2.0,8.0,88,0.00,,,-99.99,,2013-02-10 09:51:00,
2013-02-10 05:01:00,21.0,18.0,-100.00,West,279,1.0,1.0,86,0.00,,,-99.99,,2013-02-10 10:01:00,
2013-02-10 05:11:00,23.0,21.0,-100.00,WNW,285,2.0,2.0,88,0.00,,,-99.99,,2013-02-10 10:11:00,
2013-02-10 05:21:00,24.0,21.0,-100.00,WSW,238,2.0,2.0,86,0.00,,,-99.99,,2013-02-10 10:21:00,
2013-02-10 05:32:00,20.0,18.0,-100.00,WNW,292,2.0,2.0,86,0.00,,,-99.99,,2013-02-10 10:32:00,
2013-02-10 05:42:00,21.0,18.0,-100.00,WSW,249,1.0,2.0,85,0.00,,,-99.99,,2013-02-10 10:42:00,
2013-02-10 05:51:00,22.0,19.0,-100.00,West,268,2.0,2.0,85,0.00,,,-99.99,,2013-02-10 10:51:00,
2013-02-10 06:01:00,23.0,19.0,-100.00,WSW,238,1.0,2.0,84,0.00,,,-99.99,,2013-02-10 11:01:00,
2013-02-10 06:11:00,22.0,19.0,-100.00,NW,320,1.0,2.0,82,0.00,,,-99.99,,2013-02-10 11:11:00,
2013-02-10 06:22:00,23.0,19.0,-100.00,SW,231,1.0,2.0,84,0.00,,,-99.99,,2013-02-10 11:22:00,
2013-02-10 06:32:00,24.0,21.0,-100.00,West,266,1.0,2.0,84,0.00,,,-99.99,,2013-02-10 11:32:00,
2013-02-10 06:42:00,24.0,19.0,-100.00,WNW,286,1.0,2.0,81,0.00,,,-99.99,,2013-02-10 11:42:00,
2013-02-10 06:52:00,23.0,19.0,-100.00,West,265,1.0,2.0,82,0.00,,,-99.99,,2013-02-10 11:52:00,
2013-02-10 07:02:00,22.0,18.0,-100.00,West,271,2.0,2.0,81,0.00,,,-99.99,,2013-02-10 12:02:00,
2013-02-10 07:12:00,22.0,19.0,-100.00,WSW,258,1.0,2.0,82,0.00,,,-99.99,,2013-02-10 12:12:00,
2013-02-10 07:22:00,23.0,19.0,-100.00,WSW,251,3.0,4.0,82,0.00,,,-99.99,,2013-02-10 12:22:00,
2013-02-10 07:32:00,24.0,21.0,-100.00,WSW,237,3.0,4.0,82,0.00,,,-99.99,,2013-02-10 12:32:00,
2013-02-10 07:42:00,23.0,19.0,-100.00,West,275,2.0,4.0,80,0.00,,,-99.99,,2013-02-10 12:42:00,
2013-02-10 07:52:00,24.0,19.0,-100.00,SW,217,1.0,4.0,82,0.00,,,-99.99,,2013-02-10 12:52:00,
2013-02-10 08:02:00,23.0,19.0,-100.00,WSW,254,0.0,4.0,82,0.00,,,-99.99,,2013-02-10 13:02:00,
2013-02-10 08:12:00,23.0,19.0,-100.00,NW,306,0.0,4.0,82,0.00,,,-99.99,,2013-02-10 13:12:00,
2013-02-10 08:21:00,23.0,19.0,-100.00,WSW,252,1.0,4.0,84,0.00,,,-99.99,,2013-02-10 13:21:00,
2013-02-10 08:31:00,23.0,19.0,-100.00,WNW,292,1.0,4.0,82,0.00,,,-99.99,,2013-02-10 13:31:00,
2013-02-10 08:42:00,24.0,21.0,-100.00,WNW,288,1.0,4.0,84,0.00,,,-99.99,,2013-02-10 13:42:00,
2013-02-10 08:51:00,29.0,25.0,-100.00,WSW,241,2.0,4.0,84,0.00,,,-99.99,,2013-02-10 13:51:00,
2013-02-10 09:02:00,24.0,19.0,-100.00,WNW,286,3.0,6.0,80,0.00,,,-99.99,,2013-02-10 14:02:00,
2013-02-10 09:11:00,28.0,23.0,-100.00,WSW,249,2.0,6.0,80,0.00,,,-99.99,,2013-02-10 14:11:00,
2013-02-10 09:22:00,28.0,23.0,-100.00,WSW,252,2.0,6.0,80,0.00,,,-99.99,,2013-02-10 14:22:00,
2013-02-10 09:32:00,27.0,21.0,-100.00,West,275,5.0,6.0,78,0.00,,,-99.99,,2013-02-10 14:32:00,
2013-02-10 09:42:00,28.0,23.0,-100.00,West,264,6.0,8.0,77,0.00,,,-99.99,,2013-02-10 14:42:00,
2013-02-10 09:52:00,30.0,25.0,-100.00,West,280,6.0,8.0,75,0.00,,,-99.99,,2013-02-10 14:52:00,
2013-02-10 10:02:00,31.0,25.0,-100.00,NNE,14,2.0,8.0,73,0.00,,,-99.99,,2013-02-10 15:02:00,
2013-02-10 10:11:00,32.0,25.0,-100.00,East,98,2.0,8.0,69,0.00,,,-99.99,,2013-02-10 15:11:00,
2013-02-10 10:22:00,34.0,25.0,-100.00,WNW,302,1.0,8.0,67,0.00,,,-99.99,,2013-02-10 15:22:00,
2013-02-10 10:32:00,35.0,25.0,-100.00,West,272,1.0,8.0,63,0.00,,,-99.99,,2013-02-10 15:32:00,
2013-02-10 10:42:00,36.0,23.0,-100.00,NNW,333,2.0,8.0,59,0.00,,,-99.99,,2013-02-10 15:42:00,
2013-02-10 10:52:00,37.0,23.0,-100.00,WNW,299,3.0,8.0,55,0.00,,,-99.99,,2013-02-10 15:52:00,
2013-02-10 11:02:00,38.0,23.0,-100.00,NW,307,6.0,8.0,50,0.00,,,-99.99,,2013-02-10 16:02:00,
2013-02-10 11:12:00,39.0,21.0,-100.00,West,273,6.0,8.0,45,0.00,,,-99.99,,2013-02-10 16:12:00,
2013-02-10 11:22:00,39.0,19.0,-100.00,NW,321,4.0,8.0,44,0.00,,,-99.99,,2013-02-10 16:22:00,
2013-02-10 11:32:00,40.0,19.0,-100.00,West,273,2.0,8.0,42,0.00,,,-99.99,,2013-02-10 16:32:00,
2013-02-10 11:42:00,40.0,19.0,-100.00,North,355,1.0,8.0,42,0.00,,,-99.99,,2013-02-10 16:42:00,
2013-02-10 11:52:00,41.0,21.0,-100.00,NNW,336,1.0,8.0,42,0.00,,,-99.99,,2013-02-10 16:52:00,
2013-02-10 12:02:00,43.0,19.0,-100.00,NNE,14,1.0,8.0,38,0.00,,,-99.99,,2013-02-10 17:02:00,
2013-02-10 12:12:00,41.0,19.0,-100.00,NE,38,4.0,8.0,41,0.00,,,-99.99,,2013-02-10 17:12:00,
2013-02-10 12:22:00,42.0,19.0,-100.00,NW,326,2.0,8.0,38,0.00,,,-99.99,,2013-02-10 17:22:00,
2013-02-10 12:32:00,45.0,21.0,-100.00,WNW,288,4.0,8.0,38,0.00,,,-99.99,,2013-02-10 17:32:00,
2013-02-10 12:42:00,43.0,19.0,-100.00,WNW,282,4.0,8.0,37,0.00,,,-99.99,,2013-02-10 17:42:00,
2013-02-10 12:52:00,43.0,19.0,-100.00,North,355,2.0,8.0,36,0.00,,,-99.99,,2013-02-10 17:52:00,
2013-02-10 13:02:00,44.0,19.0,-100.00,NNW,345,3.0,8.0,36,0.00,,,-99.99,,2013-02-10 18:02:00,
2013-02-10 13:12:00,46.0,23.0,-100.00,WNW,292,1.0,8.0,37,0.00,,,-99.99,,2013-02-10 18:12:00,
2013-02-10 13:22:00,46.0,21.0,-100.00,West,261,2.0,8.0,37,0.00,,,-99.99,,2013-02-10 18:22:00,
2013-02-10 13:32:00,47.0,23.0,-100.00,West,265,2.0,8.0,36,0.00,,,-99.99,,2013-02-10 18:32:00,
2013-02-10 13:42:00,46.0,21.0,-100.00,WSW,248,4.0,8.0,37,0.00,,,-99.99,,2013-02-10 18:42:00,
2013-02-10 13:52:00,50.0,27.0,-100.00,West,272,2.0,8.0,37,0.00,,,-99.99,,2013-02-10 18:52:00,
2013-02-10 14:02:00,49.0,23.0,-100.00,WNW,296,2.0,8.0,34,0.00,,,-99.99,,2013-02-10 19:02:00,
2013-02-10 14:12:00,51.0,25.0,-100.00,NNW,336,2.0,8.0,36,0.00,,,-99.99,,2013-02-10 19:12:00,
2013-02-10 14:22:00,52.0,25.0,-100.00,North,355,2.0,8.0,33,0.00,,,-99.99,,2013-02-10 19:22:00,
2013-02-10 14:32:00,51.0,25.0,-100.00,NNE,26,2.0,8.0,33,0.00,,,-99.99,,2013-02-10 19:32:00,
2013-02-10 14:42:00,55.0,27.0,-100.00,WNW,293,2.0,8.0,33,0.00,,,-99.99,,2013-02-10 19:42:00,
2013-02-10 14:52:00,51.0,23.0,-100.00,West,278,3.0,8.0,33,0.00,,,-99.99,,2013-02-10 19:52:00,
2013-02-10 15:02:00,50.0,23.0,-100.00,SW,234,4.0,8.0,33,0.00,,,-99.99,,2013-02-10 20:02:00,
2013-02-10 15:11:00,50.0,25.0,-100.00,WSW,247,2.0,8.0,36,0.00,,,-99.99,,2013-02-10 20:11:00,
2013-02-10 15:22:00,50.0,25.0,-100.00,WSW,249,5.0,8.0,36,0.00,,,-99.99,,2013-02-10 20:22:00,
2013-02-10 15:32:00,51.0,27.0,-100.00,WSW,248,5.0,8.0,36,0.00,,,-99.99,,2013-02-10 20:32:00,
2013-02-10 15:42:00,50.0,23.0,-100.00,WNW,290,4.0,8.0,34,0.00,,,-99.99,,2013-02-10 20:42:00,
2013-02-10 15:52:00,51.0,27.0,-100.00,WSW,255,5.0,8.0,36,0.00,,,-99.99,,2013-02-10 20:52:00,
2013-02-10 16:02:00,49.0,25.0,-100.00,West,265,4.0,8.0,36,0.00,,,-99.99,,2013-02-10 21:02:00,
2013-02-10 16:11:00,50.0,25.0,-100.00,West,266,4.0,8.0,36,0.00,,,-99.99,,2013-02-10 21:11:00,
2013-02-10 16:22:00,50.0,25.0,-100.00,West,262,3.0,8.0,36,0.00,,,-99.99,,2013-02-10 21:22:00,
2013-02-10 16:32:00,50.0,25.0,-100.00,South,190,3.0,8.0,36,0.00,,,-99.99,,2013-02-10 21:32:00,
2013-02-10 16:42:00,50.0,25.0,-100.00,West,259,4.0,8.0,36,0.00,,,-99.99,,2013-02-10 21:42:00,
2013-02-10 16:52:00,49.0,25.0,-100.00,West,272,4.0,8.0,37,0.00,,,-99.99,,2013-02-10 21:52:00,
2013-02-10 17:02:00,50.0,25.0,-100.00,WSW,241,4.0,8.0,37,0.00,,,-99.99,,2013-02-10 22:02:00,
2013-02-10 17:12:00,49.0,25.0,-100.00,West,271,2.0,8.0,37,0.00,,,-99.99,,2013-02-10 22:12:00,
2013-02-10 17:22:00,47.0,25.0,-100.00,West,280,2.0,8.0,40,0.00,,,-99.99,,2013-02-10 22:22:00,
2013-02-10 17:32:00,49.0,25.0,-100.00,WNW,302,1.0,8.0,38,0.00,,,-99.99,,2013-02-10 22:32:00,
2013-02-10 17:42:00,47.0,28.0,-100.00,West,264,1.0,8.0,45,0.00,,,-99.99,,2013-02-10 22:42:00,
2013-02-10 17:52:00,47.0,27.0,-100.00,SSW,204,1.0,8.0,44,0.00,,,-99.99,,2013-02-10 22:52:00,
2013-02-10 18:02:00,48.0,27.0,-100.00,West,266,2.0,8.0,40,0.00,,,-99.99,,2013-02-10 23:02:00,
2013-02-10 18:12:00,47.0,28.0,-100.00,WSW,252,3.0,8.0,46,0.00,,,-99.99,,2013-02-10 23:12:00,
2013-02-10 18:22:00,47.0,28.0,-100.00,South,183,1.0,8.0,46,0.00,,,-99.99,,2013-02-10 23:22:00,
2013-02-10 18:32:00,46.0,27.0,-100.00,NE,48,1.0,8.0,45,0.00,,,-99.99,,2013-02-10 23:32:00,
2013-02-10 18:42:00,45.0,30.0,-100.00,SW,232,2.0,8.0,54,0.00,,,-99.99,,2013-02-10 23:42:00,
2013-02-10 18:52:00,45.0,28.0,-100.00,SW,230,2.0,8.0,49,0.00,,,-99.99,,2013-02-10 23:52:00,
2013-02-10 19:02:00,44.0,30.0,-100.00,WSW,244,1.0,8.0,55,0.00,,,-99.99,,2013-02-11 00:02:00,
2013-02-10 19:11:00,44.0,28.0,-100.00,WSW,241,2.0,8.0,53,0.00,,,-99.99,,2013-02-11 00:11:00,
2013-02-10 19:22:00,45.0,28.0,-100.00,West,264,1.0,8.0,50,0.00,,,-99.99,,2013-02-11 00:22:00,
2013-02-10 19:32:00,45.0,28.0,-100.00,SSW,206,2.0,8.0,50,0.00,,,-99.99,,2013-02-11 00:32:00,
2013-02-10 19:42:00,45.0,27.0,-100.00,SW,230,3.0,8.0,47,0.00,,,-99.99,,2013-02-11 00:42:00,
2013-02-10 19:52:00,46.0,27.0,-100.00,SW,225,2.0,8.0,45,0.00,,,-99.99,,2013-02-11 00:52:00,
2013-02-10 20:01:00,46.0,27.0,-100.00,SW,234,2.0,8.0,46,0.00,,,-99.99,,2013-02-11 01:01:00,
2013-02-10 20:11:00,45.0,27.0,-100.00,West,271,2.0,8.0,47,0.00,,,-99.99,,2013-02-11 01:11:00,
2013-02-10 20:21:00,46.0,28.0,-100.00,SW,223,2.0,8.0,50,0.00,,,-99.99,,2013-02-11 01:21:00,
2013-02-10 20:32:00,46.0,28.0,-100.00,WSW,258,2.0,8.0,49,0.00,,,-99.99,,2013-02-11 01:32:00,
2013-02-10 20:42:00,46.0,27.0,-100.00,SSW,207,2.0,8.0,45,0.00,,,-99.99,,2013-02-11 01:42:00,
2013-02-10 20:52:00,46.0,27.0,-100.00,WSW,254,2.0,8.0,46,0.00,,,-99.99,,2013-02-11 01:52:00,
2013-02-10 21:01:00,46.0,27.0,-100.00,WSW,241,3.0,8.0,46,0.00,,,-99.99,,2013-02-11 02:01:00,
2013-02-10 21:11:00,50.0,30.0,-100.00,WNW,302,2.0,8.0,45,0.00,,,-99.99,,2013-02-11 02:11:00,
2013-02-10 21:21:00,48.0,27.0,-100.00,West,268,4.0,8.0,41,0.00,,,-99.99,,2013-02-11 02:21:00,
2013-02-10 21:32:00,50.0,28.0,-100.00,WNW,296,5.0,8.0,41,0.00,,,-99.99,,2013-02-11 02:32:00,
2013-02-10 21:42:00,50.0,28.0,-100.00,WNW,302,3.0,8.0,40,0.00,,,-99.99,,2013-02-11 02:42:00,
2013-02-10 21:52:00,51.0,27.0,-100.00,NW,317,4.0,8.0,38,0.00,,,-99.99,,2013-02-11 02:52:00,
2013-02-10 22:02:00,50.0,27.0,-100.00,North,355,4.0,8.0,38,0.00,,,-99.99,,2013-02-11 03:02:00,
2013-02-10 22:11:00,51.0,25.0,-100.00,NW,316,6.0,8.0,34,0.00,,,-99.99,,2013-02-11 03:11:00,
2013-02-10 22:21:00,52.0,27.0,-100.00,WNW,300,6.0,8.0,36,0.00,,,-99.99,,2013-02-11 03:21:00,
2013-02-10 22:32:00,54.0,28.0,-100.00,WNW,290,6.0,8.0,37,0.00,,,-99.99,,2013-02-11 03:32:00,
2013-02-10 22:42:00,54.0,28.0,-100.00,NW,320,5.0,8.0,36,0.00,,,-99.99,,2013-02-11 03:42:00,
2013-02-10 22:52:00,51.0,25.0,-100.00,NNW,336,6.0,14.0,34,0.00,,,-99.99,,2013-02-11 03:52:00,
2013-02-10 23:02:00,52.0,25.0,-100.00,WNW,288,6.0,14.0,33,0.00,,,-99.99,,2013-02-11 04:02:00,
2013-02-10 23:11:00,52.0,25.0,-100.00,NW,323,7.0,14.0,34,0.00,,,-99.99,,2013-02-11 04:11:00,
2013-02-10 23:22:00,50.0,32.0,-100.00,North,2,7.0,14.0,50,0.00,,,-99.99,,2013-02-11 04:22:00,
2013-02-10 23:32:00,49.0,34.0,-100.00,North,358,6.0,14.0,58,0.00,,,-99.99,,2013-02-11 04:32:00,
2013-02-10 23:42:00,49.0,34.0,-100.00,NW,309,6.0,14.0,58,0.00,,,-99.99,,2013-02-11 04:42:00,
2013-02-10 23:52:00,49.0,32.0,-100.00,North,360,7.0,14.0,56,0.00,,,-99.99,,2013-02-11 04:52:00,